Time;durP1;ratioP1;P1;durP2;ratioP2;P2;SDS_P1;SDS_P2;PMS_P1;PMS_P2;Temp;Humidity;BMP_temperature;BMP_pressure;BME280_temperature;BME280_humidity;BME280_pressure;Samples;Min_cycle;Max_cycle;Signal;HPM_P1;HPM_P2
2023/09/24 00:02:12;;;;;;;9.85;2.20;;;13.80;99.90;;;;;;4865453;29;20908;-81
2023/09/24 00:04:39;;;;;;;9.25;1.88;;;13.80;99.90;;;;;;4863707;29;20037;-81
2023/09/24 00:07:08;;;;;;;6.88;1.95;;;13.80;99.90;;;;;;4865072;29;20425;-81
2023/09/24 00:09:33;;;;;;;7.13;1.80;;;13.80;99.90;;;;;;4864887;29;20121;-79
2023/09/24 00:11:59;;;;;;;11.32;2.10;;;13.90;99.90;;;;;;4868989;29;20155;-81
2023/09/24 00:14:30;;;;;;;9.30;2.08;;;13.80;99.90;;;;;;4870462;29;20115;-81
2023/09/24 00:16:57;;;;;;;4.88;2.10;;;13.80;99.90;;;;;;4870934;29;20160;-81
2023/09/24 00:19:23;;;;;;;11.15;2.05;;;13.80;99.90;;;;;;4871677;29;20443;-81
2023/09/24 00:21:49;;;;;;;6.65;1.90;;;13.80;99.90;;;;;;4866024;29;20487;-81
2023/09/24 00:24:16;;;;;;;5.88;2.00;;;13.90;99.90;;;;;;4869130;29;20460;-81
2023/09/24 00:26:42;;;;;;;6.47;1.83;;;13.90;99.90;;;;;;4862733;29;20029;-79
2023/09/24 00:29:10;;;;;;;9.82;1.77;;;13.90;99.90;;;;;;4859619;29;20483;-81
2023/09/24 00:31:35;;;;;;;6.93;1.98;;;14.00;99.90;;;;;;4867304;29;20029;-81
2023/09/24 00:34:01;;;;;;;6.30;2.05;;;14.10;99.90;;;;;;4865004;29;20045;-80
2023/09/24 00:36:26;;;;;;;7.32;2.15;;;14.20;99.90;;;;;;4864782;29;20338;-80
2023/09/24 00:38:52;;;;;;;6.13;2.13;;;14.20;99.90;;;;;;4869914;29;20399;-80
2023/09/24 00:41:18;;;;;;;6.35;2.10;;;14.30;99.90;;;;;;4865435;29;20101;-81
2023/09/24 00:43:44;;;;;;;6.72;2.10;;;14.20;99.90;;;;;;4865422;29;20159;-81
2023/09/24 00:46:11;;;;;;;6.80;2.00;;;14.30;99.90;;;;;;4864801;29;20397;-80
2023/09/24 00:48:38;;;;;;;5.85;2.25;;;14.30;99.90;;;;;;4868507;29;20040;-81
2023/09/24 00:51:23;;;;;;;5.97;1.80;;;14.40;99.90;;;;;;4865693;29;20045;-80
2023/09/24 00:53:54;;;;;;;5.85;2.20;;;14.40;99.90;;;;;;4867271;29;20276;-82
2023/09/24 00:56:21;;;;;;;5.28;1.40;;;14.40;99.90;;;;;;4870096;29;20058;-81
2023/09/24 00:58:50;;;;;;;5.85;2.08;;;14.40;99.90;;;;;;4864603;29;20065;-81
2023/09/24 01:01:16;;;;;;;9.88;2.35;;;14.50;99.90;;;;;;4868457;29;20483;-81
2023/09/24 01:03:43;;;;;;;5.53;2.00;;;14.50;99.90;;;;;;4861830;29;20084;-81
2023/09/24 01:06:08;;;;;;;9.27;2.28;;;14.50;99.90;;;;;;4866900;29;20025;-81
2023/09/24 01:08:35;;;;;;;5.05;2.00;;;14.60;99.90;;;;;;4867170;29;20638;-80
2023/09/24 01:11:02;;;;;;;6.43;1.90;;;14.50;99.90;;;;;;4855974;29;20120;-80
2023/09/24 01:13:40;;;;;;;9.93;2.55;;;14.50;99.90;;;;;;4861997;29;20120;-80
2023/09/24 01:16:06;;;;;;;8.27;2.53;;;14.60;99.90;;;;;;4856423;29;20093;-81
2023/09/24 01:18:34;;;;;;;5.75;2.47;;;14.60;99.90;;;;;;4865707;29;20045;-80
2023/09/24 01:21:01;;;;;;;8.68;2.30;;;14.60;99.90;;;;;;4854843;29;20098;-80
2023/09/24 01:23:29;;;;;;;8.82;2.80;;;14.60;99.90;;;;;;4875497;29;20095;-81
2023/09/24 01:25:56;;;;;;;10.38;3.00;;;14.60;99.90;;;;;;4869683;29;20021;-80
2023/09/24 01:28:21;;;;;;;10.32;2.70;;;14.50;99.90;;;;;;4865123;29;21505;-80
2023/09/24 01:30:47;;;;;;;11.57;2.38;;;14.50;99.90;;;;;;4866436;29;20049;-80
2023/09/24 01:33:13;;;;;;;10.60;2.97;;;14.60;99.90;;;;;;4862837;29;20052;-80
2023/09/24 01:35:39;;;;;;;12.57;3.30;;;14.60;99.90;;;;;;4861895;29;20071;-80
2023/09/24 01:38:05;;;;;;;9.27;3.25;;;14.60;99.90;;;;;;4867155;29;20044;-80
2023/09/24 01:40:33;;;;;;;11.82;3.03;;;14.60;99.90;;;;;;4868347;29;20029;-79
2023/09/24 01:43:01;;;;;;;10.35;2.92;;;14.60;99.90;;;;;;4867800;29;20092;-80
2023/09/24 01:45:28;;;;;;;10.15;2.78;;;14.70;99.90;;;;;;4868038;29;20044;-78
2023/09/24 01:47:55;;;;;;;9.43;2.50;;;14.80;99.90;;;;;;4869567;29;20056;-80
2023/09/24 01:50:27;;;;;;;9.55;2.65;;;14.80;99.90;;;;;;4866951;29;20021;-82
2023/09/24 01:52:53;;;;;;;7.78;2.80;;;14.90;99.90;;;;;;4854121;29;20746;-79
2023/09/24 01:55:19;;;;;;;9.05;2.53;;;15.00;99.90;;;;;;4866696;29;20479;-80
2023/09/24 01:57:46;;;;;;;9.60;2.72;;;15.00;99.90;;;;;;4867700;29;20029;-80
2023/09/24 02:00:18;;;;;;;10.00;2.80;;;15.00;99.90;;;;;;4863257;29;20183;-80
2023/09/24 02:02:43;;;;;;;9.60;2.35;;;15.10;99.90;;;;;;4859532;29;20056;-80
2023/09/24 02:05:10;;;;;;;13.90;2.60;;;15.10;99.90;;;;;;4867347;29;20029;-80
2023/09/24 02:07:38;;;;;;;8.07;2.65;;;15.10;99.90;;;;;;4865446;29;20165;-80
2023/09/24 02:10:05;;;;;;;13.35;2.75;;;15.10;99.90;;;;;;4856355;29;20036;-80
2023/09/24 02:12:38;;;;;;;9.00;2.47;;;15.00;99.90;;;;;;4864616;29;20029;-80
2023/09/24 02:15:09;;;;;;;13.38;2.85;;;15.00;99.90;;;;;;4868058;29;20041;-80
2023/09/24 02:17:35;;;;;;;10.07;2.70;;;14.90;99.90;;;;;;4867568;29;20088;-79
2023/09/24 02:20:10;;;;;;;8.57;2.45;;;15.00;99.90;;;;;;4867063;29;20117;-80
2023/09/24 02:22:36;;;;;;;9.30;2.90;;;15.00;99.90;;;;;;4867474;29;20265;-80
2023/09/24 02:25:03;;;;;;;6.88;2.65;;;15.00;99.90;;;;;;4868480;29;20029;-80
2023/09/24 02:27:28;;;;;;;14.00;2.80;;;15.00;99.90;;;;;;4864032;29;20454;-80
2023/09/24 02:29:54;;;;;;;9.95;2.67;;;15.10;99.90;;;;;;4870053;29;20957;-80
2023/09/24 02:32:19;;;;;;;11.85;2.45;;;15.10;99.90;;;;;;4865595;29;20033;-79
2023/09/24 02:34:45;;;;;;;10.38;2.50;;;15.10;99.90;;;;;;4867182;29;20093;-80
2023/09/24 02:37:11;;;;;;;9.15;2.63;;;15.10;99.90;;;;;;4867781;29;20044;-80
2023/09/24 02:39:36;;;;;;;10.55;2.45;;;15.20;99.90;;;;;;4866942;29;20029;-79
2023/09/24 02:42:02;;;;;;;11.82;2.75;;;15.20;99.90;;;;;;4865768;29;20517;-80
2023/09/24 02:44:28;;;;;;;11.63;2.53;;;15.30;99.90;;;;;;4862803;29;20040;-80
2023/09/24 02:46:55;;;;;;;13.00;2.50;;;15.30;99.90;;;;;;4867780;29;20033;-81
2023/09/24 02:49:21;;;;;;;12.48;2.38;;;15.40;99.90;;;;;;4866174;29;20487;-85
2023/09/24 02:51:46;;;;;;;7.63;2.38;;;15.40;99.90;;;;;;4879865;29;20029;-79
2023/09/24 02:54:13;;;;;;;9.50;3.08;;;15.40;99.90;;;;;;4867061;29;20037;-80
2023/09/24 02:56:38;;;;;;;11.98;2.40;;;15.50;99.90;;;;;;4859341;29;20028;-80
2023/09/24 02:59:04;;;;;;;14.10;2.83;;;15.40;99.90;;;;;;4850378;29;20396;-80
2023/09/24 03:01:29;;;;;;;9.80;2.50;;;15.40;99.90;;;;;;4865056;29;20040;-79
2023/09/24 03:03:55;;;;;;;10.40;2.47;;;15.40;99.90;;;;;;4869128;29;20045;-81
2023/09/24 03:06:21;;;;;;;8.40;2.60;;;15.40;99.90;;;;;;4852345;29;20104;-80
2023/09/24 03:08:49;;;;;;;11.50;2.30;;;15.40;99.90;;;;;;4863170;29;20037;-80
2023/09/24 03:11:14;;;;;;;10.52;2.80;;;15.40;99.90;;;;;;4868282;29;20048;-80
2023/09/24 03:13:41;;;;;;;10.43;2.40;;;15.30;99.90;;;;;;4866958;29;20631;-80
2023/09/24 03:16:07;;;;;;;12.98;3.03;;;15.20;99.90;;;;;;4856253;29;20384;-80
2023/09/24 03:18:33;;;;;;;16.77;2.83;;;15.30;99.90;;;;;;4866742;29;20036;-80
2023/09/24 03:20:58;;;;;;;11.70;2.47;;;15.20;99.90;;;;;;4869780;29;20119;-80
2023/09/24 03:23:24;;;;;;;11.00;2.25;;;15.20;99.90;;;;;;4866434;29;20072;-81
2023/09/24 03:25:50;;;;;;;10.82;2.65;;;15.20;99.90;;;;;;4867955;29;20043;-80
2023/09/24 03:28:16;;;;;;;10.90;2.50;;;15.20;99.90;;;;;;4867076;29;20136;-80
2023/09/24 03:30:41;;;;;;;11.10;2.72;;;15.10;99.90;;;;;;4864247;29;20682;-80
2023/09/24 03:33:07;;;;;;;10.65;3.17;;;15.10;99.90;;;;;;4862974;29;20144;-81
2023/09/24 03:35:33;;;;;;;9.70;2.28;;;15.10;99.90;;;;;;4865391;29;20611;-80
2023/09/24 03:37:59;;;;;;;15.48;2.53;;;15.10;99.90;;;;;;4862961;29;20472;-80
2023/09/24 03:40:28;;;;;;;13.88;2.72;;;15.20;99.90;;;;;;4867668;29;20043;-80
2023/09/24 03:42:54;;;;;;;11.05;2.60;;;15.20;99.90;;;;;;4864335;29;20516;-80
2023/09/24 03:45:23;;;;;;;8.48;2.35;;;15.10;99.90;;;;;;4868283;29;20049;-80
2023/09/24 03:47:49;;;;;;;11.65;2.92;;;15.20;99.90;;;;;;4868110;29;20537;-80
2023/09/24 03:50:19;;;;;;;13.27;2.42;;;15.10;99.90;;;;;;4867836;29;20055;-80
2023/09/24 03:52:49;;;;;;;13.00;2.55;;;15.10;99.90;;;;;;4866534;29;20029;-80
2023/09/24 03:55:16;;;;;;;9.77;2.13;;;15.00;99.90;;;;;;4865673;29;20097;-81
2023/09/24 03:57:42;;;;;;;10.13;2.60;;;15.00;99.90;;;;;;4865330;29;20033;-80
2023/09/24 04:00:11;;;;;;;12.07;2.80;;;15.00;99.90;;;;;;4865443;29;20029;-81
2023/09/24 04:02:39;;;;;;;11.40;2.30;;;15.00;99.90;;;;;;4867149;29;20432;-80
2023/09/24 04:05:08;;;;;;;13.00;2.95;;;14.90;99.90;;;;;;4865980;29;20581;-80
2023/09/24 04:07:37;;;;;;;11.90;2.45;;;15.00;99.90;;;;;;4867979;29;20081;-80
2023/09/24 04:10:04;;;;;;;14.43;2.72;;;15.00;99.90;;;;;;4865034;29;20461;-80
2023/09/24 04:12:33;;;;;;;14.50;2.60;;;15.10;99.90;;;;;;4866217;29;20040;-80
2023/09/24 04:15:00;;;;;;;14.82;2.78;;;15.10;99.90;;;;;;4866382;29;20073;-80
2023/09/24 04:17:25;;;;;;;14.07;2.45;;;15.10;99.90;;;;;;4864743;29;20052;-80
2023/09/24 04:19:52;;;;;;;11.18;2.20;;;15.20;99.90;;;;;;4855713;29;20041;-80
2023/09/24 04:22:18;;;;;;;10.48;2.30;;;15.30;99.90;;;;;;4861722;29;20060;-80
2023/09/24 04:24:43;;;;;;;14.63;2.67;;;15.40;99.90;;;;;;4862237;29;20039;-80
2023/09/24 04:27:09;;;;;;;10.25;2.60;;;15.40;99.90;;;;;;4862802;29;20037;-81
2023/09/24 04:29:35;;;;;;;14.00;2.35;;;15.40;99.90;;;;;;4853581;29;20053;-81
2023/09/24 04:32:00;;;;;;;10.05;2.00;;;15.40;99.90;;;;;;4859357;29;20053;-80
2023/09/24 04:34:26;;;;;;;12.70;2.33;;;15.50;99.90;;;;;;4859787;29;20021;-82
2023/09/24 04:36:51;;;;;;;13.55;2.75;;;15.50;99.90;;;;;;4859765;29;20033;-87
2023/09/24 04:39:18;;;;;;;15.15;2.38;;;15.60;99.90;;;;;;4864938;29;20120;-81
2023/09/24 04:41:44;;;;;;;8.52;2.30;;;15.60;99.90;;;;;;4863651;29;20045;-80
2023/09/24 04:44:10;;;;;;;15.05;2.90;;;15.50;99.90;;;;;;4861093;29;20036;-80
2023/09/24 04:46:36;;;;;;;9.68;2.33;;;15.50;99.90;;;;;;4863171;29;20052;-80
2023/09/24 04:49:05;;;;;;;12.18;2.47;;;15.50;99.90;;;;;;4866914;29;20144;-80
2023/09/24 04:51:32;;;;;;;11.70;2.20;;;15.50;99.90;;;;;;4864351;29;20035;-81
2023/09/24 04:53:59;;;;;;;13.00;2.60;;;15.60;99.90;;;;;;4865291;29;20048;-81
2023/09/24 04:56:25;;;;;;;9.90;2.30;;;15.60;99.90;;;;;;4862770;29;20052;-80
2023/09/24 04:58:50;;;;;;;12.38;2.60;;;15.60;99.90;;;;;;4866637;29;20045;-80
2023/09/24 05:01:16;;;;;;;11.00;2.40;;;15.60;99.90;;;;;;4853433;29;20113;-81
2023/09/24 05:03:42;;;;;;;10.85;2.03;;;15.70;99.90;;;;;;4867063;29;20056;-80
2023/09/24 05:06:07;;;;;;;11.82;2.63;;;15.80;99.90;;;;;;4863028;29;20273;-80
2023/09/24 05:08:34;;;;;;;13.32;2.50;;;15.80;99.90;;;;;;4858884;29;20070;-80
2023/09/24 05:11:00;;;;;;;13.27;3.00;;;15.90;99.90;;;;;;4863020;29;20395;-80
2023/09/24 05:13:26;;;;;;;10.93;2.10;;;16.00;99.90;;;;;;4864691;29;20029;-79
2023/09/24 05:15:54;;;;;;;21.25;3.00;;;16.00;99.90;;;;;;4860575;29;20056;-80
2023/09/24 05:18:23;;;;;;;12.18;2.30;;;16.10;99.90;;;;;;4867114;29;20048;-80
2023/09/24 05:20:49;;;;;;;9.43;2.67;;;16.00;99.90;;;;;;4848441;29;20064;-81
2023/09/24 05:23:14;;;;;;;13.13;2.90;;;16.10;99.90;;;;;;4853700;29;20086;-84
2023/09/24 05:25:41;;;;;;;14.38;3.15;;;16.10;99.90;;;;;;4866321;29;20139;-83
2023/09/24 05:28:06;;;;;;;14.70;2.92;;;16.10;99.90;;;;;;4863926;29;20484;-84
2023/09/24 05:30:32;;;;;;;11.25;2.10;;;16.10;99.90;;;;;;4862974;29;20091;-84
2023/09/24 05:32:58;;;;;;;11.55;2.72;;;16.10;99.90;;;;;;4861766;29;20033;-84
2023/09/24 05:35:23;;;;;;;8.23;2.25;;;16.10;99.90;;;;;;4848323;29;20037;-85
2023/09/24 05:37:50;;;;;;;12.85;2.47;;;16.10;99.90;;;;;;4850323;29;20030;-80
2023/09/24 05:40:15;;;;;;;11.00;2.75;;;16.10;99.90;;;;;;4863692;29;20073;-85
2023/09/24 05:42:41;;;;;;;7.03;2.00;;;16.00;99.90;;;;;;4857719;29;20041;-84
2023/09/24 05:45:08;;;;;;;11.55;2.53;;;16.10;99.90;;;;;;4863074;29;20072;-85
2023/09/24 05:47:33;;;;;;;12.27;2.50;;;16.00;99.90;;;;;;4855739;29;20575;-80
2023/09/24 05:50:00;;;;;;;10.90;2.55;;;16.10;99.90;;;;;;4855965;29;20486;-79
2023/09/24 05:52:25;;;;;;;12.38;2.53;;;16.10;99.90;;;;;;4858074;29;20459;-80
2023/09/24 05:54:51;;;;;;;12.60;2.20;;;16.10;99.90;;;;;;4865001;29;20115;-80
2023/09/24 05:57:17;;;;;;;10.23;2.53;;;16.20;99.90;;;;;;4859375;29;20478;-79
2023/09/24 05:59:43;;;;;;;9.40;2.08;;;16.20;99.90;;;;;;4860027;29;20070;-80
2023/09/24 06:02:09;;;;;;;18.50;3.85;;;16.10;99.90;;;;;;4855977;29;20037;-83
2023/09/24 06:04:34;;;;;;;15.32;2.28;;;16.20;99.90;;;;;;4870800;29;20039;-77
2023/09/24 06:07:00;;;;;;;12.90;2.45;;;16.10;99.90;;;;;;4858535;29;20557;-78
2023/09/24 06:09:28;;;;;;;11.02;2.60;;;16.20;99.90;;;;;;4856419;29;20377;-80
2023/09/24 06:11:55;;;;;;;12.30;2.38;;;16.20;99.90;;;;;;4860467;29;20060;-80
2023/09/24 06:14:21;;;;;;;14.20;2.22;;;16.20;99.90;;;;;;4860866;29;20530;-78
2023/09/24 06:16:46;;;;;;;13.35;2.75;;;16.30;99.90;;;;;;4860022;29;20037;-83
2023/09/24 06:19:13;;;;;;;12.98;2.80;;;16.30;99.90;;;;;;4856467;29;20061;-78
2023/09/24 06:21:38;;;;;;;10.88;2.40;;;16.30;99.90;;;;;;4861661;29;20043;-82
2023/09/24 06:24:05;;;;;;;14.77;3.00;;;16.40;99.90;;;;;;4864575;29;20052;-81
2023/09/24 06:26:30;;;;;;;13.70;3.55;;;16.30;99.90;;;;;;4861097;29;20037;-77
2023/09/24 06:28:56;;;;;;;12.65;2.60;;;16.50;99.90;;;;;;4853768;29;20068;-80
2023/09/24 06:31:22;;;;;;;13.48;2.47;;;16.50;99.90;;;;;;4855976;29;20029;-81
2023/09/24 06:33:48;;;;;;;11.75;2.65;;;16.60;99.90;;;;;;4861353;29;20098;-83
2023/09/24 06:36:14;;;;;;;12.98;3.17;;;16.60;99.90;;;;;;4855467;29;20539;-83
2023/09/24 06:38:39;;;;;;;10.52;2.17;;;16.70;99.90;;;;;;4858871;29;20033;-82
2023/09/24 06:41:05;;;;;;;14.57;2.58;;;16.70;99.90;;;;;;4861056;29;21531;-79
2023/09/24 06:43:32;;;;;;;19.52;3.03;;;16.70;99.90;;;;;;4858956;29;20422;-80
2023/09/24 06:45:58;;;;;;;14.50;2.92;;;16.70;99.90;;;;;;4865403;29;20025;-82
2023/09/24 06:48:25;;;;;;;16.75;2.70;;;16.60;99.90;;;;;;4864061;29;20092;-79
2023/09/24 06:50:51;;;;;;;15.05;3.00;;;16.60;99.90;;;;;;4857149;29;20044;-82
2023/09/24 06:53:18;;;;;;;13.30;2.50;;;16.60;99.90;;;;;;4861200;29;20036;-78
2023/09/24 06:55:43;;;;;;;13.80;2.47;;;16.80;99.90;;;;;;4859601;29;20707;-80
2023/09/24 06:58:09;;;;;;;12.73;2.75;;;16.90;99.90;;;;;;4871109;29;20037;-83
2023/09/24 07:00:35;;;;;;;17.88;2.78;;;17.00;99.90;;;;;;4857690;29;20033;-86
2023/09/24 07:03:00;;;;;;;17.42;2.45;;;17.00;99.90;;;;;;4521535;29;10000053;-84
2023/09/24 07:05:26;;;;;;;13.93;2.60;;;16.90;99.90;;;;;;4852594;29;20114;-81
2023/09/24 07:07:52;;;;;;;13.38;2.47;;;16.80;99.90;;;;;;4863557;29;20148;-87
2023/09/24 07:10:20;;;;;;;14.13;2.42;;;16.70;99.90;;;;;;4869542;29;20025;-85
2023/09/24 07:12:46;;;;;;;15.18;2.83;;;16.60;99.90;;;;;;4868665;29;20173;-85
2023/09/24 07:15:12;;;;;;;13.73;2.67;;;16.60;99.90;;;;;;4860462;29;20097;-82
2023/09/24 07:17:37;;;;;;;12.85;2.90;;;16.70;99.90;;;;;;4862220;29;20124;-78
2023/09/24 07:20:04;;;;;;;18.42;2.67;;;16.80;99.90;;;;;;4860745;29;20541;-80
2023/09/24 07:22:30;;;;;;;12.23;2.42;;;16.90;99.90;;;;;;4856434;29;20041;-81
2023/09/24 07:24:56;;;;;;;16.80;3.83;;;16.90;99.90;;;;;;4857085;29;20357;-79
2023/09/24 07:27:24;;;;;;;14.82;2.45;;;16.90;99.90;;;;;;4859475;29;20040;-82
2023/09/24 07:29:49;;;;;;;9.65;2.42;;;17.00;99.90;;;;;;4852576;29;20044;-76
2023/09/24 07:32:15;;;;;;;15.98;2.50;;;17.20;99.90;;;;;;4854311;29;20088;-82
2023/09/24 07:34:41;;;;;;;8.63;2.33;;;17.30;99.90;;;;;;4865164;29;20033;-82
2023/09/24 07:37:08;;;;;;;11.93;2.42;;;17.30;99.90;;;;;;4849893;29;20445;-78
2023/09/24 07:39:34;;;;;;;15.02;2.85;;;17.20;99.90;;;;;;4865024;29;20040;-80
2023/09/24 07:42:00;;;;;;;6.88;2.38;;;17.30;99.90;;;;;;4866710;29;20564;-83
2023/09/24 07:44:26;;;;;;;10.43;2.60;;;17.40;99.90;;;;;;4859043;29;20096;-78
2023/09/24 07:46:53;;;;;;;15.35;2.60;;;17.70;99.90;;;;;;4858802;29;20184;-83
2023/09/24 07:49:18;;;;;;;14.25;2.55;;;18.00;99.90;;;;;;4854512;29;20529;-77
2023/09/24 07:51:44;;;;;;;13.07;2.60;;;18.20;99.90;;;;;;4856209;29;20029;-81
2023/09/24 07:54:09;;;;;;;9.65;2.60;;;18.50;99.90;;;;;;4859926;29;20033;-81
2023/09/24 07:56:40;;;;;;;12.05;2.40;;;18.60;99.90;;;;;;4855371;29;20515;-80
2023/09/24 07:59:06;;;;;;;14.70;2.65;;;18.80;99.90;;;;;;4858659;29;20483;-81
2023/09/24 08:01:32;;;;;;;12.63;2.45;;;19.20;99.90;;;;;;4856131;29;20881;-82
2023/09/24 08:03:58;;;;;;;10.02;2.80;;;19.70;99.90;;;;;;4850691;29;20045;-82
2023/09/24 08:06:24;;;;;;;11.05;2.75;;;20.50;99.90;;;;;;4855218;29;20040;-78
2023/09/24 08:08:49;;;;;;;12.50;2.55;;;20.90;99.90;;;;;;4855992;29;20823;-77
2023/09/24 08:11:15;;;;;;;12.77;2.42;;;20.70;99.90;;;;;;4855158;29;20089;-78
2023/09/24 08:13:40;;;;;;;14.48;2.53;;;20.60;99.90;;;;;;4853386;29;20025;-78
2023/09/24 08:16:07;;;;;;;12.80;2.38;;;20.50;99.90;;;;;;4853585;29;20029;-81
2023/09/24 08:18:32;;;;;;;11.57;2.60;;;20.00;99.90;;;;;;4855316;29;20033;-85
2023/09/24 08:20:59;;;;;;;11.77;2.35;;;20.20;99.90;;;;;;4855564;29;20547;-82
2023/09/24 08:23:25;;;;;;;7.18;2.15;;;21.00;99.90;;;;;;4856108;29;20132;-84
2023/09/24 08:25:51;;;;;;;11.45;2.33;;;22.00;99.90;;;;;;4857351;29;20619;-87
2023/09/24 08:28:18;;;;;;;9.07;2.13;;;22.40;99.90;;;;;;4852520;29;20041;-81
2023/09/24 08:30:44;;;;;;;14.10;3.05;;;22.30;99.90;;;;;;4858142;29;20060;-82
2023/09/24 08:33:10;;;;;;;10.05;2.42;;;22.10;99.90;;;;;;4862493;29;20033;-85
2023/09/24 08:35:36;;;;;;;7.95;2.42;;;21.70;99.90;;;;;;4874802;29;20040;-92
2023/09/24 08:38:02;;;;;;;12.25;2.35;;;21.10;99.90;;;;;;4866138;29;20067;-81
2023/09/24 08:40:30;;;;;;;14.23;2.40;;;20.40;99.90;;;;;;4860558;29;20159;-83
2023/09/24 08:42:56;;;;;;;10.82;2.47;;;20.10;99.90;;;;;;4863741;29;20049;-89
2023/09/24 08:45:31;;;;;;;13.15;2.53;;;19.90;99.90;;;;;;4868110;29;20113;-87
2023/09/24 08:48:07;;;;;;;11.32;2.63;;;19.60;99.90;;;;;;4644262;29;10000963;-89
2023/09/24 08:50:41;;;;;;;10.77;2.28;;;19.40;99.90;;;;;;4860482;29;20306;-89
2023/09/24 08:53:12;;;;;;;11.57;3.05;;;19.40;99.90;;;;;;4860232;29;20039;-85
2023/09/24 08:55:43;;;;;;;8.82;2.30;;;19.40;99.90;;;;;;4858542;29;20029;-89
2023/09/24 08:58:09;;;;;;;10.52;2.10;;;19.20;99.90;;;;;;4864311;29;20176;-90
2023/09/24 09:00:34;;;;;;;14.98;2.50;;;19.00;99.90;;;;;;4859861;29;20037;-85
2023/09/24 09:03:03;;;;;;;13.05;2.75;;;18.90;99.90;;;;;;4860255;29;20144;-89
2023/09/24 09:05:29;;;;;;;14.25;2.20;;;18.70;99.90;;;;;;4852656;29;20039;-76
2023/09/24 09:08:01;;;;;;;15.20;2.97;;;18.70;99.90;;;;;;4858103;29;20036;-75
2023/09/24 09:10:27;;;;;;;9.48;2.55;;;18.70;99.90;;;;;;4853825;29;20499;-75
2023/09/24 09:13:06;;;;;;;12.25;2.75;;;18.90;99.90;;;;;;4860268;29;20101;-76
2023/09/24 09:15:32;;;;;;;12.93;2.47;;;19.10;99.90;;;;;;4856068;29;20033;-77
2023/09/24 09:18:00;;;;;;;8.95;1.83;;;19.20;99.90;;;;;;4857920;29;20237;-77
2023/09/24 09:20:43;;;;;;;13.15;2.60;;;19.40;99.90;;;;;;4860817;29;20049;-81
2023/09/24 09:23:12;;;;;;;16.17;2.90;;;19.60;99.90;;;;;;4857754;29;20084;-77
2023/09/24 09:25:49;;;;;;;14.73;2.47;;;20.00;99.90;;;;;;4857485;29;20583;-77
2023/09/24 09:28:31;;;;;;;13.05;2.60;;;20.70;99.90;;;;;;4868947;29;20037;-78
2023/09/24 09:30:58;;;;;;;14.75;2.83;;;21.00;99.90;;;;;;4858334;29;20542;-77
2023/09/24 09:33:25;;;;;;;10.07;2.28;;;21.20;99.90;;;;;;4866091;29;20093;-78
2023/09/24 09:35:51;;;;;;;10.50;2.58;;;21.20;99.90;;;;;;4862446;29;20033;-75
2023/09/24 09:38:17;;;;;;;16.83;3.08;;;21.60;99.90;;;;;;4865461;29;20116;-77
2023/09/24 09:40:43;;;;;;;8.00;2.58;;;22.00;99.90;;;;;;4865267;29;20120;-77
2023/09/24 09:43:12;;;;;;;12.23;2.55;;;22.80;99.90;;;;;;4862315;29;20153;-76
2023/09/24 09:45:38;;;;;;;8.05;2.47;;;23.30;99.90;;;;;;4859951;29;20324;-76
2023/09/24 09:48:04;;;;;;;13.23;2.67;;;23.10;99.90;;;;;;4858113;29;20036;-76
2023/09/24 09:50:34;;;;;;;14.85;2.60;;;23.20;99.90;;;;;;4859221;29;20029;-76
2023/09/24 09:53:05;;;;;;;13.77;2.80;;;22.50;99.90;;;;;;4854888;29;20048;-76
2023/09/24 09:55:31;;;;;;;;;;;21.80;99.90;;;;;;4863728;29;20308;-78
2023/09/24 09:57:56;;;;;;;11.85;2.50;;;21.20;99.90;;;;;;4859853;29;20068;-77
2023/09/24 10:00:22;;;;;;;11.38;2.80;;;20.90;99.90;;;;;;4858901;29;20044;-78
2023/09/24 10:02:48;;;;;;;12.15;2.75;;;20.50;99.90;;;;;;4858341;29;20511;-76
2023/09/24 10:05:15;;;;;;;11.90;2.38;;;20.20;99.90;;;;;;4882135;29;20252;-84
2023/09/24 10:07:41;;;;;;;13.60;3.15;;;20.10;99.90;;;;;;4860272;29;20033;-81
2023/09/24 10:10:31;;;;;;;9.30;2.28;;;20.00;99.90;;;;;;4862018;29;20036;-88
2023/09/24 10:13:03;;;;;;;12.85;2.22;;;19.80;99.90;;;;;;4861951;29;20444;-81
2023/09/24 10:15:30;;;;;;;16.30;2.63;;;19.70;99.90;;;;;;4858081;29;20591;-81
2023/09/24 10:18:11;;;;;;;9.40;2.00;;;19.60;99.90;;;;;;4863405;29;20029;-86
2023/09/24 10:20:49;;;;;;;11.27;2.55;;;19.40;99.90;;;;;;4861503;29;20033;-87
2023/09/24 10:23:44;;;;;;;10.95;2.20;;;19.50;99.90;;;;;;4855329;29;20133;-88
2023/09/24 10:26:48;;;;;;;12.70;2.45;;;19.40;99.90;;;;;;4847949;29;20073;-88
2023/09/24 10:29:18;;;;;;;13.35;3.17;;;19.10;99.90;;;;;;4861288;29;20216;-86
2023/09/24 10:32:06;;;;;;;13.60;2.45;;;19.10;99.90;;;;;;4858739;29;20047;-82
2023/09/24 10:34:59;;;;;;;14.95;2.67;;;19.00;99.90;;;;;;4857733;29;20417;-82
2023/09/24 10:37:30;;;;;;;16.45;2.72;;;18.90;99.90;;;;;;4871378;29;20108;-90
2023/09/24 10:40:09;;;;;;;10.65;2.67;;;18.80;99.90;;;;;;4851290;29;20029;-80
2023/09/24 10:42:43;;;;;;;10.80;2.55;;;18.90;99.90;;;;;;4861009;29;20044;-84
2023/09/24 10:45:09;;;;;;;9.00;2.35;;;19.20;99.90;;;;;;4863399;29;20120;-84
2023/09/24 10:47:41;;;;;;;11.75;2.65;;;19.40;99.90;;;;;;4861052;29;20057;-87
2023/09/24 10:50:17;;;;;;;8.68;2.15;;;19.60;99.90;;;;;;4862525;29;20498;-84
2023/09/24 10:52:58;;;;;;;8.80;2.50;;;19.90;99.90;;;;;;4859101;29;20499;-81
2023/09/24 10:55:30;;;;;;;16.75;2.70;;;20.10;99.90;;;;;;4861095;29;20487;-87
2023/09/24 10:58:04;;;;;;;10.70;2.70;;;20.10;99.90;;;;;;4858580;29;20428;-87
2023/09/24 11:00:32;;;;;;;8.80;1.90;;;20.30;99.90;;;;;;4863898;29;20511;-87
2023/09/24 11:03:08;;;;;;;9.27;2.10;;;20.50;99.90;;;;;;4864473;29;20061;-90
2023/09/24 11:05:41;;;;;;;11.30;2.22;;;21.00;99.90;;;;;;4859727;29;20128;-87
2023/09/24 11:08:08;;;;;;;9.80;2.38;;;21.50;99.90;;;;;;4864145;29;20036;-88
2023/09/24 11:10:34;;;;;;;12.02;2.22;;;22.00;99.90;;;;;;4865238;29;20037;-88
2023/09/24 11:13:02;;;;;;;15.20;2.78;;;21.80;99.90;;;;;;4864363;29;20037;-87
2023/09/24 11:15:38;;;;;;;9.50;3.00;;;21.50;99.90;;;;;;4860096;29;20037;-88
2023/09/24 11:18:05;;;;;;;12.68;2.72;;;21.30;99.90;;;;;;4865650;29;20448;-92
2023/09/24 11:20:32;;;;;;;7.88;2.22;;;20.90;99.90;;;;;;4863678;29;20437;-87
2023/09/24 11:23:06;;;;;;;14.05;2.78;;;20.50;99.90;;;;;;4862239;29;20049;-87
2023/09/24 11:25:32;;;;;;;11.63;2.50;;;20.40;99.90;;;;;;4878489;29;20465;-87
2023/09/24 11:28:01;;;;;;;12.35;2.53;;;20.30;99.90;;;;;;4865655;29;20037;-85
2023/09/24 11:30:49;;;;;;;14.70;2.65;;;20.00;99.90;;;;;;4858908;29;20129;-82
2023/09/24 11:33:22;;;;;;;13.48;3.17;;;19.80;99.90;;;;;;4857288;29;20081;-81
2023/09/24 11:35:50;;;;;;;14.07;2.38;;;19.70;99.90;;;;;;4857469;29;20047;-83
2023/09/24 11:38:33;;;;;;;16.77;2.85;;;19.80;99.90;;;;;;4843974;29;20025;-80
2023/09/24 11:41:25;;;;;;;11.65;2.65;;;20.10;99.90;;;;;;4853197;29;20040;-82
2023/09/24 11:43:57;;;;;;;12.73;2.65;;;20.40;99.90;;;;;;4877063;29;20056;-87
2023/09/24 11:46:28;;;;;;;13.38;2.67;;;20.90;99.90;;;;;;4861825;29;20158;-89
2023/09/24 11:48:55;;;;;;;13.15;3.10;;;21.20;99.90;;;;;;4860558;29;20029;-84
2023/09/24 11:51:21;;;;;;;15.77;2.60;;;21.50;99.90;;;;;;4858291;29;20124;-86
2023/09/24 11:53:47;;;;;;;12.95;2.70;;;21.40;99.90;;;;;;4856790;29;20084;-88
2023/09/24 11:56:13;;;;;;;15.43;2.90;;;21.50;99.90;;;;;;4857145;29;20488;-90
2023/09/24 11:58:39;;;;;;;13.02;2.63;;;21.90;99.90;;;;;;4852190;29;20048;-91
2023/09/24 12:01:08;;;;;;;10.85;2.38;;;22.00;99.90;;;;;;4849788;29;20029;-88
2023/09/24 12:03:33;;;;;;;8.85;2.40;;;22.10;99.90;;;;;;4854854;29;20045;-87
2023/09/24 12:05:59;;;;;;;11.60;2.35;;;22.10;99.90;;;;;;4852900;29;20093;-89
2023/09/24 12:08:25;;;;;;;9.32;2.80;;;22.50;99.90;;;;;;4864241;29;20085;-86
2023/09/24 12:10:51;;;;;;;13.20;2.63;;;22.60;99.90;;;;;;4861159;29;20055;-86
2023/09/24 12:13:18;;;;;;;12.68;2.30;;;22.80;99.90;;;;;;4860631;29;20029;-84
2023/09/24 12:15:44;;;;;;;9.98;2.05;;;23.30;99.90;;;;;;4866858;29;20032;-91
2023/09/24 12:18:10;;;;;;;10.73;2.33;;;23.10;99.90;;;;;;4865528;29;20067;-83
2023/09/24 12:20:37;;;;;;;12.25;2.67;;;22.80;99.90;;;;;;4859710;29;20025;-86
2023/09/24 12:23:06;;;;;;;9.57;1.92;;;22.50;99.90;;;;;;4860579;29;20037;-86
2023/09/24 12:25:34;;;;;;;10.40;2.28;;;22.40;99.90;;;;;;4860374;29;20039;-88
2023/09/24 12:28:00;;;;;;;8.43;2.15;;;22.20;99.90;;;;;;4874524;29;20999;-84
2023/09/24 12:30:26;;;;;;;10.23;2.10;;;22.40;99.90;;;;;;4863410;29;20089;-85
2023/09/24 12:32:53;;;;;;;8.18;2.50;;;22.40;99.90;;;;;;4864535;29;20053;-91
2023/09/24 12:35:19;;;;;;;13.20;2.28;;;22.60;99.90;;;;;;4868959;29;20029;-85
2023/09/24 12:37:45;;;;;;;10.70;2.20;;;22.60;99.90;;;;;;4866169;29;20065;-84
2023/09/24 12:40:11;;;;;;;10.77;2.10;;;22.60;99.90;;;;;;4870566;29;20028;-85
2023/09/24 12:42:38;;;;;;;13.48;2.60;;;23.10;99.90;;;;;;4875563;29;20036;-89
2023/09/24 12:45:06;;;;;;;11.30;2.42;;;23.40;99.90;;;;;;4874487;29;20112;-85